createdAt,value
2022-09-14T00:00:16.075Z,100286.47
2022-09-14T00:02:46.643Z,100280.16
2022-09-14T00:05:14.983Z,100272.78
2022-09-14T00:07:42.943Z,100265.66
2022-09-14T00:10:12.353Z,100265.66
2022-09-14T00:12:40.224Z,100263.75
2022-09-14T00:15:11.925Z,100260.19
2022-09-14T00:17:39.793Z,100256.63
2022-09-14T00:20:08.869Z,100242.94
2022-09-14T00:22:36.752Z,100241.03
2022-09-14T00:25:05.180Z,100234.75
2022-09-14T00:27:34.438Z,100218.03
2022-09-14T00:30:02.510Z,100218.34
2022-09-14T00:32:30.378Z,100214.81
2022-09-14T00:34:58.614Z,100207.41
2022-09-14T00:37:26.599Z,100206.59
2022-09-14T00:39:54.917Z,100202.22
2022-09-14T00:42:23.098Z,100196.47
2022-09-14T00:45:07.652Z,100191.53
2022-09-14T00:47:35.571Z,100181.16
2022-09-14T00:50:04.116Z,100177.59
2022-09-14T00:52:33.928Z,100174.03
2022-09-14T00:55:02.666Z,100167.50
2022-09-14T00:57:31.404Z,100176.78
2022-09-14T01:00:00.672Z,100173.22
2022-09-14T01:02:28.653Z,100178.69
2022-09-14T01:04:56.625Z,100184.16
2022-09-14T01:07:31.653Z,100186.88
2022-09-14T01:10:04.872Z,100175.94
2022-09-14T01:12:36.741Z,100188.78
2022-09-14T01:15:09.617Z,100190.44
2022-09-14T01:17:40.083Z,100188.53
2022-09-14T01:20:25.594Z,100187.72
2022-09-14T01:22:56.391Z,100185.81
2022-09-14T01:25:46.646Z,100169.81
2022-09-14T01:28:17.160Z,100176.44
2022-09-14T01:30:44.998Z,100184.97
2022-09-14T01:33:14.854Z,100140.97
2022-09-14T01:35:44.832Z,100183.31
2022-09-14T01:38:19.507Z,100193.19
2022-09-14T01:40:49.298Z,100116.13
2022-09-14T01:43:21.043Z,100190.69
2022-09-14T01:45:50.732Z,100162.91
2022-09-14T01:48:20.752Z,100194.25
2022-09-14T01:50:51.536Z,100181.56
2022-09-14T01:53:22.016Z,100170.00
2022-09-14T01:55:54.888Z,100196.16
2022-09-14T01:58:26.893Z,100199.72
2022-09-14T02:00:56.788Z,100198.91
2022-09-14T02:03:26.652Z,100198.91
2022-09-14T02:05:57.434Z,100189.88
2022-09-14T02:08:26.389Z,100190.69
2022-09-14T02:10:54.249Z,100158.78
2022-09-14T02:13:22.125Z,100189.88
2022-09-14T02:15:51.691Z,100183.31
2022-09-14T02:18:19.654Z,100182.50
2022-09-14T02:20:48.686Z,100119.53
2022-09-14T02:23:16.576Z,100178.09
2022-09-14T02:25:44.802Z,100174.28
2022-09-14T02:28:12.706Z,100179.75
2022-09-14T02:30:50.631Z,100139.41
2022-09-14T02:33:22.331Z,100176.44
2022-09-14T02:35:52.416Z,100166.63
2022-09-14T02:38:23.049Z,100163.59
2022-09-14T02:40:54.420Z,100163.34
2022-09-14T02:43:29.086Z,100147.72
2022-09-14T02:45:59.679Z,100142.78
2022-09-14T02:48:32.410Z,100147.19
2022-09-14T02:51:04.414Z,100148.84
2022-09-14T02:53:37.086Z,100148.03
2022-09-14T02:56:09.943Z,100149.94
2022-09-14T02:58:38.681Z,100142.00
2022-09-14T03:01:07.170Z,100140.09
2022-09-14T03:03:36.455Z,100133.53
2022-09-14T03:06:05.287Z,100128.34
2022-09-14T03:08:33.147Z,100132.69
2022-09-14T03:11:00.969Z,100133.81
2022-09-14T03:13:28.891Z,100062.38
2022-09-14T03:15:57.120Z,100119.56
2022-09-14T03:18:25.036Z,100126.44
2022-09-14T03:20:54.308Z,100126.16
2022-09-14T03:23:22.157Z,100118.22
2022-09-14T03:25:50.577Z,100114.38
2022-09-14T03:28:18.469Z,100074.28
2022-09-14T03:30:46.593Z,100109.75
2022-09-14T03:33:15.377Z,100106.19
2022-09-14T03:35:44.561Z,100108.91
2022-09-14T03:38:13.838Z,100105.09
2022-09-14T03:40:41.708Z,100106.19
2022-09-14T03:43:12.314Z,100093.59
2022-09-14T03:45:40.215Z,100103.44
2022-09-14T03:48:08.070Z,100096.06
2022-09-14T03:50:35.919Z,100097.16
2022-09-14T03:53:04.765Z,100094.41
2022-09-14T03:55:34.256Z,100087.84
2022-09-14T03:58:02.134Z,100094.41
2022-09-14T04:00:30.072Z,100089.50
2022-09-14T04:02:58.213Z,100099.09
2022-09-14T04:05:27.840Z,100088.66
2022-09-14T04:07:55.737Z,100093.63
2022-09-14T04:10:23.596Z,100094.41
2022-09-14T04:12:52.836Z,100092.78
2022-09-14T04:15:21.996Z,100081.81
2022-09-14T04:17:50.457Z,100091.97
2022-09-14T04:20:18.548Z,100085.69
2022-09-14T04:22:46.681Z,100093.63
2022-09-14T04:25:14.845Z,100087.31
2022-09-14T04:27:42.885Z,100085.69
2022-09-14T04:30:13.846Z,100082.09
2022-09-14T04:32:42.047Z,100088.41
2022-09-14T04:35:10.715Z,100079.38
2022-09-14T04:37:38.715Z,100075.56
2022-09-14T04:40:07.641Z,100078.28
2022-09-14T04:42:35.626Z,100076.66
2022-09-14T04:45:04.299Z,100077.47
2022-09-14T04:47:33.641Z,100074.75
2022-09-14T04:50:01.696Z,100079.38
2022-09-14T04:52:29.560Z,100073.91
2022-09-14T04:54:57.408Z,100071.19
2022-09-14T04:57:25.356Z,100073.91
2022-09-14T04:59:53.218Z,100069.25
2022-09-14T05:02:21.198Z,100067.63
2022-09-14T05:04:50.996Z,100068.44
2022-09-14T05:07:19.134Z,100072.00
2022-09-14T05:09:47.092Z,100011.28
2022-09-14T05:12:15.334Z,100067.63
2022-09-14T05:14:43.194Z,100060.50
2022-09-14T05:17:11.396Z,100062.41
2022-09-14T05:19:39.323Z,100064.06
2022-09-14T05:22:08.560Z,100069.53
2022-09-14T05:24:36.512Z,100057.75
2022-09-14T05:27:05.045Z,100058.59
2022-09-14T05:29:32.992Z,100060.50
2022-09-14T05:32:00.912Z,100070.34
2022-09-14T05:34:28.868Z,100063.22
2022-09-14T05:36:56.770Z,100065.13
2022-09-14T05:39:26.412Z,100051.47
2022-09-14T05:41:54.266Z,100055.84
2022-09-14T05:44:22.423Z,100053.94
2022-09-14T05:46:50.447Z,100054.78
2022-09-14T05:49:18.341Z,100050.63
2022-09-14T05:51:46.209Z,100058.59
2022-09-14T05:54:14.113Z,100060.25
2022-09-14T05:56:43.742Z,100056.69
2022-09-14T05:59:11.902Z,100059.41
2022-09-14T06:01:40.014Z,100054.78
2022-09-14T06:04:07.968Z,100063.22
2022-09-14T06:06:36.129Z,100055.03
2022-09-14T06:09:04.046Z,100060.25
2022-09-14T06:11:33.018Z,100022.31
2022-09-14T06:14:02.337Z,100065.97
2022-09-14T06:16:30.702Z,100065.97
2022-09-14T06:18:59.424Z,100061.31
2022-09-14T06:21:29.640Z,100066.78
2022-09-14T06:23:57.515Z,100067.88
2022-09-14T06:26:25.804Z,100058.84
2022-09-14T06:28:53.724Z,100061.84
2022-09-14T06:31:25.048Z,100069.53
2022-09-14T06:33:52.953Z,100071.44
2022-09-14T06:36:22.198Z,100075.81
2022-09-14T06:38:50.614Z,100070.59
2022-09-14T06:41:20.074Z,100084.28
2022-09-14T06:43:48.802Z,100071.44
2022-09-14T06:46:19.118Z,100069.53
2022-09-14T06:48:49.719Z,100070.59
2022-09-14T06:51:18.643Z,100032.97
2022-09-14T06:53:46.782Z,100071.44
2022-09-14T06:56:15.043Z,100076.06
2022-09-14T06:58:42.895Z,100076.91
2022-09-14T07:01:12.528Z,100071.44
2022-09-14T07:03:40.533Z,100072.25
2022-09-14T07:06:11.541Z,100078.81
2022-09-14T07:08:39.740Z,100077.97
2022-09-14T07:11:08.339Z,100072.50
2022-09-14T07:13:36.210Z,100082.66
2022-09-14T07:16:05.504Z,100075.25
2022-09-14T07:18:34.114Z,100069.78
2022-09-14T07:21:05.787Z,100073.34
2022-09-14T07:23:36.670Z,100047.53
2022-09-14T07:26:06.154Z,100060.78
2022-09-14T07:28:33.985Z,100062.94
2022-09-14T07:31:01.880Z,100066.25
2022-09-14T07:33:29.967Z,100063.50
2022-09-14T07:36:06.078Z,100064.59
2022-09-14T07:38:51.594Z,100062.69
2022-09-14T07:41:20.900Z,100066.50
2022-09-14T07:43:50.326Z,100060.19
2022-09-14T07:46:18.385Z,100064.59
2022-09-14T07:48:46.320Z,100059.38
2022-09-14T07:51:14.205Z,100046.53
2022-09-14T07:53:44.172Z,100054.72
2022-09-14T07:56:13.299Z,100056.63
2022-09-14T07:58:42.070Z,100052.00
2022-09-14T08:01:12.026Z,100054.72
2022-09-14T08:03:40.754Z,100055.56
2022-09-14T08:06:10.852Z,100049.25
2022-09-14T08:08:39.703Z,100043.81
2022-09-14T08:11:11.126Z,100052.00
2022-09-14T08:13:39.262Z,100041.31
2022-09-14T08:16:07.630Z,100045.44
2022-09-14T08:18:35.817Z,100036.41
2022-09-14T08:21:07.206Z,100043.81
2022-09-14T08:23:35.156Z,100046.53
2022-09-14T08:26:06.427Z,100047.63
2022-09-14T08:28:36.360Z,100042.41
2022-09-14T08:31:05.985Z,100047.63
2022-09-14T08:33:34.185Z,100044.88
2022-09-14T08:36:02.889Z,100042.16
2022-09-14T08:38:30.755Z,100041.31
2022-09-14T08:40:59.400Z,100037.47
2022-09-14T08:43:27.310Z,100045.97
2022-09-14T08:46:00.657Z,100009.19
2022-09-14T08:48:30.662Z,100044.06
2022-09-14T08:50:58.484Z,100046.78
2022-09-14T08:53:26.604Z,100057.72
2022-09-14T08:55:55.464Z,100049.53
2022-09-14T08:58:30.736Z,100055.81
2022-09-14T09:01:09.201Z,100053.34
2022-09-14T09:03:57.541Z,100051.44
2022-09-14T09:06:27.857Z,100044.81
2022-09-14T09:08:59.881Z,100052.53
2022-09-14T09:11:29.539Z,100050.59
2022-09-14T09:13:57.417Z,100054.16
2022-09-14T09:16:26.961Z,100056.91
2022-09-14T09:18:56.240Z,100054.16
2022-09-14T09:21:25.126Z,100056.06
2022-09-14T09:23:52.987Z,100054.16
2022-09-14T09:26:25.627Z,100036.81
2022-09-14T09:28:55.808Z,100058.75
2022-09-14T09:31:28.643Z,100069.75
2022-09-14T09:33:56.524Z,100065.38
2022-09-14T09:36:25.684Z,100065.09
2022-09-14T09:38:53.521Z,100057.19
2022-09-14T09:41:22.664Z,100059.09
2022-09-14T09:44:01.988Z,100041.31
2022-09-14T09:46:31.899Z,100000.75
2022-09-14T09:49:00.400Z,100044.34
2022-09-14T09:51:29.378Z,100044.34
2022-09-14T09:53:58.341Z,100045.41
2022-09-14T09:56:27.585Z,100055.28
2022-09-14T09:58:55.474Z,100016.28
2022-09-14T10:01:27.572Z,100050.59
2022-09-14T10:04:05.175Z,100051.72
2022-09-14T10:06:33.422Z,100051.72
2022-09-14T10:09:01.264Z,100051.72
2022-09-14T10:11:36.561Z,100050.06
2022-09-14T10:14:04.764Z,100054.44
2022-09-14T10:16:36.003Z,100056.34
2022-09-14T10:19:05.356Z,100057.19
2022-09-14T10:21:33.172Z,100049.22
2022-09-14T10:24:06.576Z,100053.34
2022-09-14T10:26:37.996Z,100053.34
2022-09-14T10:29:27.114Z,100051.72
2022-09-14T10:31:55.985Z,100043.50
2022-09-14T10:34:25.601Z,100038.03
2022-09-14T10:36:56.386Z,100012.25
2022-09-14T10:39:26.475Z,99997.41
2022-09-14T10:41:57.725Z,100036.63
2022-09-14T10:44:43.937Z,100033.41
2022-09-14T10:47:29.897Z,100017.25
2022-09-14T10:50:10.739Z,100009.88
2022-09-14T10:52:42.544Z,100007.66
2022-09-14T10:55:34.442Z,100019.16
2022-09-14T10:58:12.933Z,100009.06
2022-09-14T11:00:47.110Z,100012.03
2022-09-14T11:03:26.479Z,100036.38
2022-09-14T11:06:01.176Z,100038.28
2022-09-14T11:08:31.723Z,99994.38
2022-09-14T11:11:11.618Z,100030.09
2022-09-14T11:13:55.385Z,100028.19
2022-09-14T11:16:40.584Z,100023.81
2022-09-14T11:19:11.788Z,100017.25
2022-09-14T11:21:45.265Z,100008.69
2022-09-14T11:24:19.370Z,100010.97
2022-09-14T11:26:51.473Z,100000.03
2022-09-14T11:29:22.149Z,99995.38
2022-09-14T11:32:17.002Z,99996.22
2022-09-14T11:34:43.467Z,99997.28
2022-09-14T11:37:15.152Z,100005.25
2022-09-14T11:39:45.065Z,99998.13
2022-09-14T11:42:15.398Z,100002.50
2022-09-14T11:44:44.702Z,100001.69
2022-09-14T11:47:14.647Z,100004.41
2022-09-14T11:49:55.296Z,100005.25
2022-09-14T11:52:25.444Z,100000.84
2022-09-14T11:54:53.363Z,100001.69
2022-09-14T11:57:22.484Z,100004.41
2022-09-14T11:59:52.204Z,100010.97
2022-09-14T12:03:02.846Z,99998.13
2022-09-14T12:05:34.843Z,100003.59
2022-09-14T12:08:06.050Z,100004.66
2022-09-14T12:10:45.324Z,99989.56
2022-09-14T12:13:20.593Z,99972.63
2022-09-14T12:15:48.700Z,99992.66
2022-09-14T12:18:24.437Z,99988.25
2022-09-14T12:21:01.704Z,99995.63
2022-09-14T12:23:47.015Z,99991.81
2022-09-14T12:26:38.889Z,99981.16
2022-09-14T12:29:26.763Z,99985.53
2022-09-14T12:32:07.053Z,99973.78
2022-09-14T12:34:34.978Z,99981.72
2022-09-14T12:37:31.725Z,99988.84
2022-09-14T12:40:32.388Z,99983.38
2022-09-14T12:43:50.972Z,99968.03
2022-09-14T12:46:49.238Z,99967.22
2022-09-14T12:49:32.195Z,99978.16
2022-09-14T12:52:05.472Z,99922.97
2022-09-14T12:54:42.914Z,99983.63
2022-09-14T12:57:20.643Z,99996.22
2022-09-14T12:59:51.926Z,99954.22
2022-09-14T13:02:47.480Z,99972.44
2022-09-14T13:05:16.251Z,99953.56
2022-09-14T13:07:44.450Z,99948.91
2022-09-14T13:10:19.112Z,99925.38
2022-09-14T13:12:48.664Z,99918.84
2022-09-14T13:15:22.616Z,99927.53
2022-09-14T13:17:58.454Z,99945.34
2022-09-14T13:20:26.455Z,99935.25
2022-09-14T13:22:54.297Z,99930.84
2022-09-14T13:25:32.678Z,99881.50
2022-09-14T13:28:02.734Z,99944.53
2022-09-14T13:30:30.840Z,99936.31
2022-09-14T13:32:58.801Z,99944.28
2022-09-14T13:35:30.794Z,99946.69
2022-09-14T13:37:59.364Z,99957.09
2022-09-14T13:40:29.227Z,99953.56
2022-09-14T13:42:57.165Z,99940.13
2022-09-14T13:45:28.714Z,99946.19
2022-09-14T13:47:56.616Z,99946.19
2022-09-14T13:50:25.351Z,99913.25
2022-09-14T13:53:02.969Z,99948.34
2022-09-14T13:55:43.590Z,99951.66
2022-09-14T13:58:16.835Z,99933.00
2022-09-14T14:00:51.590Z,99908.31
2022-09-14T14:03:33.951Z,99947.00
2022-09-14T14:06:23.894Z,99947.00
2022-09-14T14:08:57.144Z,99939.63
2022-09-14T14:11:36.497Z,99937.38
2022-09-14T14:14:12.914Z,99939.59
2022-09-14T14:16:42.245Z,99943.44
2022-09-14T14:19:28.391Z,99937.16
2022-09-14T14:22:17.378Z,99929.22
2022-09-14T14:25:11.863Z,99924.31
2022-09-14T14:27:34.581Z,99908.38
2022-09-14T14:30:03.364Z,99929.78
2022-09-14T14:32:32.761Z,99932.50
2022-09-14T14:35:05.616Z,99929.78
2022-09-14T14:37:33.444Z,99932.50
2022-09-14T14:40:01.458Z,99939.06
2022-09-14T14:42:29.388Z,99939.06
2022-09-14T14:44:57.250Z,99939.88
2022-09-14T14:47:27.502Z,99932.75
2022-09-14T14:49:57.111Z,99931.69
2022-09-14T14:52:25.055Z,99929.78
2022-09-14T14:54:52.904Z,99936.06
2022-09-14T14:57:21.061Z,99932.50
2022-09-14T14:59:52.723Z,99929.78
2022-09-14T15:02:20.551Z,99928.69
2022-09-14T15:04:49.213Z,99924.06
2022-09-14T15:07:18.739Z,99909.56
2022-09-14T15:09:46.809Z,99898.63
2022-09-14T15:12:14.856Z,99899.44
2022-09-14T15:14:45.025Z,99885.78
2022-09-14T15:17:13.237Z,99872.38
2022-09-14T15:19:41.141Z,99867.44
2022-09-14T15:22:10.173Z,99861.69
2022-09-14T15:24:39.413Z,99866.34
2022-09-14T15:27:07.925Z,99876.78
2022-09-14T15:29:35.775Z,99889.63
2022-09-14T15:32:03.998Z,99885.81
2022-09-14T15:34:34.259Z,99902.22
2022-09-14T15:37:06.425Z,99890.88
2022-09-14T15:39:38.244Z,99914.19
2022-09-14T15:42:07.955Z,99920.22
2022-09-14T15:44:35.857Z,99906.25
2022-09-14T15:47:03.740Z,99929.00
2022-09-14T15:49:31.933Z,99928.19
2022-09-14T15:51:59.888Z,99884.88
2022-09-14T15:54:33.341Z,99913.44
2022-09-14T15:57:01.251Z,99913.44
2022-09-14T15:59:34.251Z,99916.16
2022-09-14T16:02:02.319Z,99914.75
2022-09-14T16:04:30.209Z,99927.09
2022-09-14T16:06:58.111Z,99919.72
2022-09-14T16:09:26.315Z,99914.25
2022-09-14T16:11:56.299Z,99915.34
2022-09-14T16:14:27.615Z,99912.59
2022-09-14T16:16:56.923Z,99919.72
2022-09-14T16:19:24.850Z,99920.81
2022-09-14T16:21:53.845Z,99927.34
2022-09-14T16:24:22.223Z,99930.91
2022-09-14T16:26:50.135Z,99928.19
2022-09-14T16:29:19.875Z,99926.53
2022-09-14T16:31:50.293Z,99932.00
2022-09-14T16:34:22.430Z,99934.72
2022-09-14T16:36:50.317Z,99937.75
2022-09-14T16:39:19.134Z,99943.22
2022-09-14T16:41:47.093Z,99949.75
2022-09-14T16:44:16.084Z,99958.50
2022-09-14T16:46:43.949Z,99953.56
2022-09-14T16:49:12.105Z,99966.44
2022-09-14T16:51:41.603Z,99963.72
2022-09-14T16:54:12.199Z,99971.91
2022-09-14T16:56:40.382Z,99977.13
2022-09-14T16:59:09.820Z,99975.22
2022-09-14T17:01:41.341Z,99980.41
2022-09-14T17:04:11.060Z,99853.94
2022-09-14T17:06:42.132Z,99971.38
2022-09-14T17:09:11.307Z,99976.59
2022-09-14T17:11:39.775Z,99971.13
2022-09-14T17:14:09.720Z,99974.44
2022-09-14T17:16:37.685Z,99967.88
2022-09-14T17:19:05.733Z,99968.97
2022-09-14T17:21:34.741Z,99967.06
2022-09-14T17:24:04.873Z,99955.81
2022-09-14T17:26:33.025Z,99967.88
2022-09-14T17:29:01.352Z,99956.13
2022-09-14T17:31:31.408Z,99958.84
2022-09-14T17:34:00.411Z,99962.41
2022-09-14T17:36:28.509Z,99953.63
2022-09-14T17:38:56.993Z,99957.19
2022-09-14T17:41:28.005Z,99962.66
2022-09-14T17:43:57.409Z,99967.88
2022-09-14T17:46:25.444Z,99967.06
2022-09-14T17:48:53.378Z,99959.91
2022-09-14T17:51:23.149Z,99880.88
2022-09-14T17:53:54.677Z,99971.16
2022-09-14T17:56:23.995Z,99971.97
2022-09-14T17:58:59.314Z,99982.09
2022-09-14T18:01:27.231Z,99984.56
2022-09-14T18:03:56.887Z,99980.75
2022-09-14T18:06:25.169Z,99947.53
2022-09-14T18:08:54.795Z,99970.63
2022-09-14T18:11:22.875Z,99972.25
2022-09-14T18:13:51.309Z,99971.22
2022-09-14T18:16:21.966Z,99982.97
2022-09-14T18:18:50.153Z,99982.97
2022-09-14T18:21:18.691Z,99989.50
2022-09-14T18:23:49.660Z,99997.69
2022-09-14T18:26:17.634Z,99980.97
2022-09-14T18:28:46.292Z,100009.75
2022-09-14T18:31:15.907Z,100012.47
2022-09-14T18:33:52.069Z,100014.41
2022-09-14T18:36:20.580Z,100028.31
2022-09-14T18:38:49.075Z,100019.03
2022-09-14T18:41:17.484Z,100015.47
2022-09-14T18:43:45.973Z,100013.25
2022-09-14T18:46:13.915Z,100013.81
2022-09-14T18:48:43.685Z,100010.25
2022-09-14T18:51:13.110Z,100011.09
2022-09-14T18:53:41.111Z,100014.91
2022-09-14T18:56:10.699Z,99996.56
2022-09-14T18:58:40.720Z,100014.91
2022-09-14T19:01:08.967Z,100006.44
2022-09-14T19:03:37.594Z,99999.53
2022-09-14T19:06:06.538Z,100009.75
2022-09-14T19:08:35.820Z,100011.66
2022-09-14T19:11:07.375Z,100025.03
2022-09-14T19:13:35.576Z,100032.72
2022-09-14T19:16:07.014Z,100036.53
2022-09-14T19:18:35.032Z,100031.88
2022-09-14T19:21:07.323Z,100036.53
2022-09-14T19:23:37.301Z,100029.41
2022-09-14T19:26:09.020Z,100029.41
2022-09-14T19:28:37.393Z,100032.13
2022-09-14T19:31:08.857Z,100011.28
2022-09-14T19:33:38.000Z,100031.31
2022-09-14T19:36:08.188Z,100034.88
2022-09-14T19:38:37.517Z,100038.69
2022-09-14T19:41:05.740Z,100045.81
2022-09-14T19:43:34.208Z,100038.69
2022-09-14T19:46:04.059Z,99936.28
2022-09-14T19:48:32.070Z,100034.84
2022-09-14T19:51:00.759Z,100039.81
2022-09-14T19:53:28.995Z,100028.88
2022-09-14T19:55:58.296Z,100036.25
2022-09-14T19:58:28.628Z,100040.88
2022-09-14T20:00:56.621Z,100037.31
2022-09-14T20:03:24.891Z,100036.50
2022-09-14T20:06:00.279Z,100037.31
2022-09-14T20:08:28.227Z,100041.13
2022-09-14T20:10:56.212Z,100040.31
2022-09-14T20:13:25.588Z,100050.41
2022-09-14T20:15:53.604Z,100060.53
2022-09-14T20:18:21.583Z,100066.00
2022-09-14T20:20:49.466Z,100011.09
2022-09-14T20:23:17.498Z,100054.22
2022-09-14T20:25:45.405Z,100060.81
2022-09-14T20:28:13.351Z,100058.06
2022-09-14T20:30:42.817Z,100051.72
2022-09-14T20:33:10.985Z,100063.53
2022-09-14T20:35:38.897Z,100058.88
2022-09-14T20:38:06.830Z,100063.53
2022-09-14T20:40:34.843Z,100032.56
2022-09-14T20:43:03.076Z,100059.97
2022-09-14T20:45:30.976Z,100069.00
2022-09-14T20:48:00.344Z,100066.28
2022-09-14T20:50:28.208Z,100059.97
2022-09-14T20:52:56.091Z,100061.06
2022-09-14T20:55:25.274Z,100050.59
2022-09-14T20:57:53.200Z,100066.53
2022-09-14T21:00:21.107Z,100072.00
2022-09-14T21:02:52.126Z,100067.88
2022-09-14T21:05:21.714Z,100086.50
2022-09-14T21:07:56.128Z,100072.00
2022-09-14T21:10:29.085Z,100081.28
2022-09-14T21:12:57.644Z,99993.63
2022-09-14T21:15:25.729Z,100085.94
2022-09-14T21:17:53.648Z,100093.31
2022-09-14T21:20:22.920Z,100077.91
2022-09-14T21:22:50.856Z,100095.22
2022-09-14T21:25:19.080Z,100094.09
2022-09-14T21:27:46.922Z,100104.22
2022-09-14T21:30:14.856Z,100103.41
2022-09-14T21:32:47.388Z,100094.38
2022-09-14T21:35:16.923Z,100100.69
2022-09-14T21:37:48.411Z,100070.44
2022-09-14T21:40:16.617Z,100096.31
2022-09-14T21:42:44.884Z,100075.66
2022-09-14T21:45:12.972Z,100083.91
2022-09-14T21:47:40.877Z,100111.91
2022-09-14T21:50:09.598Z,100118.19
2022-09-14T21:52:42.177Z,100108.03
2022-09-14T21:55:11.995Z,100035.22
2022-09-14T21:57:39.874Z,100117.63
2022-09-14T22:00:11.694Z,100118.19
2022-09-14T22:02:39.608Z,100117.34
2022-09-14T22:05:08.213Z,100122.84
2022-09-14T22:07:36.544Z,100123.09
2022-09-14T22:10:05.042Z,100108.75
2022-09-14T22:12:34.275Z,100130.22
2022-09-14T22:15:02.516Z,100129.38
2022-09-14T22:17:30.394Z,100124.75
2022-09-14T22:19:59.441Z,100112.06
2022-09-14T22:22:27.373Z,100129.63
2022-09-14T22:24:55.544Z,100142.22
2022-09-14T22:27:23.941Z,100134.03
2022-09-14T22:29:53.244Z,100132.13
2022-09-14T22:32:21.685Z,100135.94
2022-09-14T22:34:50.708Z,100126.91
2022-09-14T22:37:18.576Z,100135.34
2022-09-14T22:39:46.907Z,100135.34
2022-09-14T22:42:14.855Z,100146.28
2022-09-14T22:44:42.735Z,100146.28
2022-09-14T22:47:12.611Z,100154.47
2022-09-14T22:49:40.456Z,100148.22
2022-09-14T22:52:08.322Z,100150.13
2022-09-14T22:54:36.458Z,100152.88
2022-09-14T22:57:04.426Z,100149.28
2022-09-14T22:59:32.503Z,100152.88
2022-09-14T23:02:00.359Z,100152.03
2022-09-14T23:04:31.113Z,100163.22
2022-09-14T23:06:59.985Z,100146.25
2022-09-14T23:09:28.057Z,100155.00
2022-09-14T23:11:55.940Z,100158.56
2022-09-14T23:14:24.128Z,100159.66
2022-09-14T23:16:52.045Z,100167.03
2022-09-14T23:19:20.020Z,100109.34
2022-09-14T23:21:49.382Z,100155.84
2022-09-14T23:24:17.572Z,100164.28
2022-09-14T23:26:45.464Z,100170.59
2022-09-14T23:29:15.314Z,100171.41
2022-09-14T23:31:43.256Z,100169.75
2022-09-14T23:34:11.683Z,100176.06
2022-09-14T23:36:39.691Z,100174.41
2022-09-14T23:39:08.905Z,100174.41
2022-09-14T23:41:36.744Z,100177.13
2022-09-14T23:44:04.736Z,100180.69
2022-09-14T23:46:32.637Z,100184.50
2022-09-14T23:49:00.525Z,100187.25
2022-09-14T23:51:28.451Z,100181.78
2022-09-14T23:53:56.585Z,100176.59
2022-09-14T23:56:25.843Z,100173.03
2022-09-14T23:58:53.728Z,100173.03
